| time (UTC) | temp F | wind direction | speed MPH | gust MPH | rain 1hr in | rain 24hr in | rain mn in | humidity % | barometer mb |
| 20260831121516 | 63 | 250 | 0.0 | 1.0 | 0.00 | 0.00 | 0.00 | 16 | 1008.2 |
| 20260831120052 | 63 | 290 | 0.0 | 2.0 | 0.00 | 0.00 | 0.00 | 16 | 1008.2 |
| 20260831114552 | 62 | 250 | 0.0 | 3.0 | 0.00 | 0.00 | 0.00 | 16 | 1008.2 |
| 20260831113035 | 62 | 293 | 0.0 | 1.0 | 0.00 | 0.00 | 0.00 | 18 | 1008.1 |
| 20260831111533 | 62 | 256 | 0.0 | 2.0 | 0.00 | 0.00 | 0.00 | 19 | 1008.3 |
| 20260831110012 | 62 | 262 | 0.0 | 1.0 | 0.00 | 0.00 | 0.00 | 19 | 1008.4 |
| 20260831104517 | 62 | 243 | 0.0 | 1.0 | 0.00 | 0.00 | 0.00 | 19 | 1008.4 |
| 20260831103103 | 62 | 247 | 0.0 | 0.0 | 0.00 | 0.00 | 0.00 | 19 | 1008.5 |
| 20260831101556 | 63 | 251 | 0.0 | 1.0 | 0.00 | 0.00 | 0.00 | 19 | 1008.5 |
| 20260831100037 | 63 | 240 | 0.0 | 0.0 | 0.00 | 0.00 | 0.00 | 20 | 1008.4 |
| 20260831094532 | 63 | 185 | 0.0 | 2.0 | 0.00 | 0.00 | 0.00 | 18 | 1008.4 |
| 20260831093010 | 63 | 245 | 0.0 | 0.0 | 0.00 | 0.00 | 0.00 | 18 | 1008.5 |
| 20260831091507 | 63 | 238 | 0.0 | 0.0 | 0.00 | 0.00 | 0.00 | 16 | 1008.6 |
| 20260831090059 | 64 | 259 | 0.0 | 0.0 | 0.00 | 0.00 | 0.00 | 18 | 1008.6 |
| 20260831084547 | 64 | 255 | 0.0 | 0.0 | 0.00 | 0.00 | 0.00 | 17 | 1008.8 |
| 20260831083027 | 64 | 270 | 0.0 | 2.0 | 0.00 | 0.00 | 0.00 | 19 | 1008.8 |
| 20260831081526 | 64 | 259 | 0.0 | 1.0 | 0.00 | 0.00 | 0.00 | 17 | 1008.8 |
| 20260831080020 | 64 | 243 | 0.0 | 0.0 | 0.00 | 0.00 | 0.00 | 17 | 1008.9 |
| 20260831074506 | 64 | 264 | 0.0 | 0.0 | 0.00 | 0.00 | 0.00 | 16 | 1008.9 |
| 20260831073048 | 64 | 258 | 0.0 | 2.0 | 0.00 | 0.00 | 0.00 | 22 | 1009.0 |
| 20260831071547 | 64 | 264 | 0.0 | 0.0 | 0.00 | 0.00 | 0.00 | 22 | 1008.9 |
| 20260831070026 | 65 | 251 | 0.0 | 0.0 | 0.00 | 0.00 | 0.00 | 32 | 1008.8 |
| 20260831064526 | 65 | 278 | 0.0 | 0.0 | 0.00 | 0.00 | 0.00 | 31 | 1008.9 |
| 20260831063007 | 65 | 285 | 0.0 | 0.0 | 0.00 | 0.00 | 0.00 | 32 | 1008.9 |
| 20260831061507 | 65 | 285 | 0.0 | 0.0 | 0.00 | 0.00 | 0.00 | 31 | 1008.7 |
| 20260831060048 | 65 | 288 | 0.0 | 0.0 | 0.00 | 0.00 | 0.00 | 31 | 1008.8 |
| 20260831054549 | 65 | 284 | 0.0 | 0.0 | 0.00 | 0.00 | 0.00 | 32 | 1008.8 |
| 20260831053030 | 65 | 264 | 0.0 | 0.0 | 0.00 | 0.00 | 0.00 | 32 | 1008.7 |
| 20260831051532 | 65 | 261 | 0.0 | 0.0 | 0.00 | 0.00 | 0.00 | 36 | 1008.7 |
| 20260831050009 | 66 | 288 | 0.0 | 0.0 | 0.00 | 0.00 | 0.00 | 36 | 1008.7 |
| 20260831044513 | 66 | 288 | 0.0 | 0.0 | 0.00 | 0.00 | 0.00 | 35 | 1008.7 |
| 20260831043056 | 66 | 288 | 0.0 | 0.0 | 0.00 | 0.00 | 0.00 | 34 | 1008.6 |
| 20260831041611 | 66 | 281 | 0.0 | 0.0 | 0.00 | 0.00 | 0.00 | 34 | 1008.6 |
| 20260831040033 | 66 | 289 | 0.0 | 0.0 | 0.00 | 0.00 | 0.00 | 35 | 1008.4 |
| 20260831034532 | 66 | 287 | 0.0 | 0.0 | 0.00 | 0.00 | 0.00 | 35 | 1008.3 |
| 20260831033014 | 66 | 288 | 0.0 | 0.0 | 0.00 | 0.00 | 0.00 | 34 | 1008.1 |
| 20260831031514 | 66 | 290 | 0.0 | 0.0 | 0.00 | 0.00 | 0.00 | 35 | 1008.0 |
| 20260831030111 | 66 | 290 | 0.0 | 0.0 | 0.00 | 0.00 | 0.00 | 37 | 1007.8 |
| 20260831024556 | 66 | 293 | 0.0 | 0.0 | 0.00 | 0.00 | 0.00 | 36 | 1007.7 |
| 20260831023037 | 67 | 293 | 0.0 | 0.0 | 0.00 | 0.00 | 0.00 | 36 | 1007.6 |
| 20260831021543 | 67 | 285 | 0.0 | 0.0 | 0.00 | 0.00 | 0.00 | 37 | 1007.3 |
| 20260831020018 | 68 | 285 | 0.0 | 0.0 | 0.00 | 0.00 | 0.00 | 38 | 1007.1 |
| 20260831014518 | 68 | 287 | 0.0 | 0.0 | 0.00 | 0.00 | 0.00 | 40 | 1007.0 |
| 20260831013101 | 68 | 253 | 0.0 | 2.0 | 0.00 | 0.00 | 0.00 | 46 | 1006.9 |
| 20260831011608 | 69 | 276 | 0.0 | 4.0 | 0.00 | 0.00 | 0.00 | 51 | 1006.9 |
| 20260831011500 | 69 | 285 | 0.0 | 4.0 | 0.00 | 0.00 | 0.00 | 51 | 1006.8 |
| 20260831010044 | 69 | 211 | 0.0 | 5.0 | 0.00 | 0.00 | 0.00 | 55 | 1006.9 |
| 20260831004542 | 69 | 204 | 0.0 | 4.0 | 0.00 | 0.00 | 0.00 | 57 | 1006.9 |
| 20260831003024 | 70 | 201 | 1.0 | 7.0 | 0.00 | 0.00 | 0.00 | 59 | 1007.0 |
| 20260831001523 | 70 | 207 | 2.0 | 8.0 | 0.00 | 0.00 | 0.00 | 57 | 1007.0 |
| 20260831000014 | 71 | 166 | 1.0 | 5.0 | 0.00 | 0.00 | 0.00 | 53 | 1006.9 |
| 20260830234506 | 72 | 203 | 1.0 | 6.0 | 0.00 | 0.00 | 0.00 | 54 | 1007.0 |
| 20260830233047 | 72 | 188 | 3.0 | 9.0 | 0.00 | 0.00 | 0.00 | 58 | 1007.0 |
| 20260830231545 | 72 | 221 | 0.0 | 9.0 | 0.00 | 0.00 | 0.00 | 59 | 1007.0 |
| 20260830230031 | 72 | 194 | 1.0 | 7.0 | 0.00 | 0.00 | 0.00 | 59 | 1007.1 |
| 20260830224527 | 73 | 212 | 2.0 | 7.0 | 0.00 | 0.00 | 0.00 | 57 | 1007.1 |
| 20260830223009 | 73 | 200 | 2.0 | 8.0 | 0.00 | 0.00 | 0.00 | 59 | 1007.4 |
| 20260830221508 | 73 | 256 | 1.0 | 7.0 | 0.00 | 0.00 | 0.00 | 57 | 1007.6 |
| 20260830220107 | 75 | 228 | 3.0 | 9.0 | 0.00 | 0.00 | 0.00 | 54 | 1007.8 |
| 20260830214547 | 75 | 158 | 2.0 | 8.0 | 0.00 | 0.00 | 0.00 | 52 | 1007.9 |
| 20260830213047 | 77 | 174 | 3.0 | 9.0 | 0.00 | 0.00 | 0.00 | 49 | 1008.0 |
| 20260830211532 | 77 | 191 | 4.0 | 9.0 | 0.00 | 0.00 | 0.00 | 49 | 1008.4 |
| 20260830210027 | 77 | 162 | 0.0 | 8.0 | 0.00 | 0.00 | 0.00 | 45 | 1008.5 |
| 20260830204507 | 77 | 187 | 4.0 | 12.0 | 0.00 | 0.00 | 0.00 | 47 | 1008.6 |
| 20260830203005 | 77 | 176 | 0.0 | 9.0 | 0.00 | 0.00 | 0.00 | 42 | 1008.7 |
| 20260830201605 | 77 | 181 | 2.0 | 9.0 | 0.00 | 0.00 | 0.00 | 44 | 1008.7 |
| 20260830200055 | 77 | 186 | 2.0 | 7.0 | 0.00 | 0.00 | 0.00 | 42 | 1008.8 |
| 20260830194524 | 77 | 238 | 0.0 | 7.0 | 0.00 | 0.00 | 0.00 | 43 | 1009.0 |
| 20260830193028 | 76 | 198 | 1.0 | 8.0 | 0.00 | 0.00 | 0.00 | 45 | 1009.0 |
| 20260830191509 | 76 | 174 | 1.0 | 7.0 | 0.00 | 0.00 | 0.00 | 45 | 1009.2 |
| 20260830190008 | 76 | 215 | 2.0 | 7.0 | 0.00 | 0.00 | 0.00 | 42 | 1009.2 |
| 20260830184517 | 76 | 174 | 2.0 | 7.0 | 0.00 | 0.00 | 0.00 | 44 | 1009.4 |
| 20260830183006 | 75 | 204 | 3.0 | 7.0 | 0.00 | 0.00 | 0.00 | 43 | 1009.4 |
| 20260830181503 | 75 | 207 | 2.0 | 6.0 | 0.00 | 0.00 | 0.00 | 41 | 1009.4 |
| 20260830180103 | 74 | 212 | 1.0 | 4.0 | 0.00 | 0.00 | 0.00 | 41 | 1009.3 |
| 20260830174601 | 74 | 190 | 2.0 | 5.0 | 0.00 | 0.00 | 0.00 | 39 | 1009.3 |
| 20260830173107 | 73 | 180 | 1.0 | 4.0 | 0.00 | 0.00 | 0.00 | 43 | 1009.2 |
| 20260830171540 | 73 | 191 | 2.0 | 4.0 | 0.00 | 0.00 | 0.00 | 39 | 1009.0 |
| 20260830170039 | 73 | 200 | 1.0 | 6.0 | 0.00 | 0.00 | 0.00 | 36 | 1008.8 |
| 20260830164542 | 73 | 295 | 0.0 | 3.0 | 0.00 | 0.00 | 0.00 | 35 | 1008.8 |
| 20260830163012 | 72 | 293 | 0.0 | 3.0 | 0.00 | 0.00 | 0.00 | 33 | 1008.8 |
| 20260830161554 | 71 | 266 | 0.0 | 2.0 | 0.00 | 0.00 | 0.00 | 34 | 1008.8 |
| 20260830160050 | 70 | 201 | 0.0 | 2.0 | 0.00 | 0.00 | 0.00 | 38 | 1008.6 |
| 20260830154534 | 70 | 221 | 0.0 | 1.0 | 0.00 | 0.00 | 0.00 | 40 | 1008.6 |
| 20260830153027 | 69 | 291 | 0.0 | 2.0 | 0.00 | 0.00 | 0.00 | 42 | 1008.4 |
| 20260830151507 | 68 | 293 | 0.0 | 2.0 | 0.00 | 0.00 | 0.00 | 45 | 1008.5 |
| 20260830150004 | 67 | 242 | 0.0 | 1.0 | 0.00 | 0.00 | 0.00 | 48 | 1008.5 |
| 20260830144545 | 66 | 278 | 0.0 | 1.0 | 0.00 | 0.00 | 0.00 | 47 | 1008.4 |
| 20260830143043 | 66 | 277 | 0.0 | 1.0 | 0.00 | 0.00 | 0.00 | 46 | 1008.3 |
| 20260830141526 | 65 | 276 | 0.0 | 2.0 | 0.00 | 0.00 | 0.00 | 46 | 1008.1 |
| 20260830140023 | 65 | 274 | 0.0 | 1.0 | 0.00 | 0.00 | 0.00 | 48 | 1008.0 |
| 20260830134511 | 65 | 248 | 0.0 | 1.0 | 0.00 | 0.00 | 0.00 | 49 | 1007.9 |
| 20260830133007 | 65 | 248 | 0.0 | 1.0 | 0.00 | 0.00 | 0.00 | 49 | 1007.7 |
| 20260830131546 | 65 | 248 | 0.0 | 1.0 | 0.00 | 0.00 | 0.00 | 47 | 1007.6 |
| 20260830130042 | 64 | 239 | 0.0 | 1.0 | 0.00 | 0.00 | 0.00 | 48 | 1007.5 |
| 20260830124522 | 65 | 233 | 0.0 | 1.0 | 0.00 | 0.00 | 0.00 | 48 | 1007.4 |
| 20260830123021 | 65 | 218 | 0.0 | 1.0 | 0.00 | 0.00 | 0.00 | 48 | 1007.3 |